sensor_id;sensor_type;location;lat;lon;timestamp;pressure;altitude;pressure_sealevel;temperature;humidity
58955;BME280;45815;52.334;5.024;2023-08-12T00:00:55;101767.59;;;20.33;100.00
58955;BME280;45815;52.334;5.024;2023-08-12T00:03:21;101764.97;;;20.30;100.00
58955;BME280;45815;52.334;5.024;2023-08-12T00:05:46;101769.38;;;20.31;100.00
58955;BME280;45815;52.334;5.024;2023-08-12T00:08:12;101761.38;;;20.30;100.00
58955;BME280;45815;52.334;5.024;2023-08-12T00:10:37;101761.41;;;20.28;100.00
58955;BME280;45815;52.334;5.024;2023-08-12T00:13:03;101757.00;;;20.24;100.00
58955;BME280;45815;52.334;5.024;2023-08-12T00:15:29;101758.81;;;20.19;100.00
58955;BME280;45815;52.334;5.024;2023-08-12T00:17:54;101763.22;;;20.21;100.00
58955;BME280;45815;52.334;5.024;2023-08-12T00:20:19;101779.25;;;20.18;100.00
58955;BME280;45815;52.334;5.024;2023-08-12T00:22:45;101762.38;;;20.15;100.00
58955;BME280;45815;52.334;5.024;2023-08-12T00:25:10;101754.38;;;20.15;100.00
58955;BME280;45815;52.334;5.024;2023-08-12T00:27:36;101765.06;;;20.12;100.00
58955;BME280;45815;52.334;5.024;2023-08-12T00:30:03;101770.41;;;20.10;100.00
58955;BME280;45815;52.334;5.024;2023-08-12T00:32:29;101762.41;;;20.09;100.00
58955;BME280;45815;52.334;5.024;2023-08-12T00:34:56;101761.53;;;20.05;100.00
58955;BME280;45815;52.334;5.024;2023-08-12T00:37:21;101764.22;;;20.03;100.00
58955;BME280;45815;52.334;5.024;2023-08-12T00:39:47;101754.44;;;20.02;100.00
58955;BME280;45815;52.334;5.024;2023-08-12T00:42:12;101748.28;;;19.97;100.00
58955;BME280;45815;52.334;5.024;2023-08-12T00:44:38;101744.69;;;19.97;100.00
58955;BME280;45815;52.334;5.024;2023-08-12T00:47:04;101743.81;;;19.98;100.00
58955;BME280;45815;52.334;5.024;2023-08-12T00:49:31;101738.50;;;19.92;100.00
58955;BME280;45815;52.334;5.024;2023-08-12T00:51:56;101748.25;;;19.94;100.00
58955;BME280;45815;52.334;5.024;2023-08-12T00:54:24;101747.38;;;19.95;100.00
58955;BME280;45815;52.334;5.024;2023-08-12T00:56:53;101734.09;;;19.89;100.00
58955;BME280;45815;52.334;5.024;2023-08-12T00:59:19;101735.84;;;19.95;100.00
58955;BME280;45815;52.334;5.024;2023-08-12T01:01:46;101739.41;;;19.95;100.00
58955;BME280;45815;52.334;5.024;2023-08-12T01:04:12;101750.06;;;19.95;100.00
58955;BME280;45815;52.334;5.024;2023-08-12T01:06:38;101746.47;;;19.96;100.00
58955;BME280;45815;52.334;5.024;2023-08-12T01:09:05;101750.97;;;19.93;100.00
58955;BME280;45815;52.334;5.024;2023-08-12T01:11:49;101741.19;;;19.87;100.00
58955;BME280;45815;52.334;5.024;2023-08-12T01:14:28;101725.25;;;19.79;100.00
58955;BME280;45815;52.334;5.024;2023-08-12T01:17:03;101734.09;;;19.89;100.00
58955;BME280;45815;52.334;5.024;2023-08-12T01:19:29;101718.09;;;19.88;100.00
58955;BME280;45815;52.334;5.024;2023-08-12T01:22:00;101722.56;;;19.89;100.00
58955;BME280;45815;52.334;5.024;2023-08-12T01:24:27;101720.78;;;19.86;100.00
58955;BME280;45815;52.334;5.024;2023-08-12T01:26:52;101706.59;;;19.82;100.00
58955;BME280;45815;52.334;5.024;2023-08-12T01:29:18;101709.22;;;19.87;100.00
58955;BME280;45815;52.334;5.024;2023-08-12T01:31:55;101704.81;;;19.85;100.00
58955;BME280;45815;52.334;5.024;2023-08-12T01:34:30;101705.69;;;19.88;100.00
58955;BME280;45815;52.334;5.024;2023-08-12T01:36:58;101703.91;;;19.87;100.00
58955;BME280;45815;52.334;5.024;2023-08-12T01:39:26;101695.94;;;19.86;100.00
58955;BME280;45815;52.334;5.024;2023-08-12T01:41:52;101698.56;;;19.87;100.00
58955;BME280;45815;52.334;5.024;2023-08-12T01:44:19;101686.16;;;19.86;100.00
58955;BME280;45815;52.334;5.024;2023-08-12T01:46:45;101686.16;;;19.86;100.00
58955;BME280;45815;52.334;5.024;2023-08-12T01:49:10;101691.47;;;19.86;100.00
58955;BME280;45815;52.334;5.024;2023-08-12T01:51:36;101690.56;;;19.89;100.00
58955;BME280;45815;52.334;5.024;2023-08-12T01:54:01;101687.91;;;19.87;100.00
58955;BME280;45815;52.334;5.024;2023-08-12T01:56:27;101683.47;;;19.89;100.00
58955;BME280;45815;52.334;5.024;2023-08-12T01:58:53;101678.13;;;19.91;100.00
58955;BME280;45815;52.334;5.024;2023-08-12T02:01:18;101675.44;;;19.92;100.00
58955;BME280;45815;52.334;5.024;2023-08-12T02:03:44;101676.34;;;19.93;100.00
58955;BME280;45815;52.334;5.024;2023-08-12T02:06:09;101672.78;;;19.94;100.00
58955;BME280;45815;52.334;5.024;2023-08-12T02:08:35;101676.34;;;19.93;100.00
58955;BME280;45815;52.334;5.024;2023-08-12T02:11:00;101673.66;;;19.94;100.00
58955;BME280;45815;52.334;5.024;2023-08-12T02:13:26;101678.09;;;19.95;100.00
58955;BME280;45815;52.334;5.024;2023-08-12T02:15:51;101676.31;;;19.94;100.00
58955;BME280;45815;52.334;5.024;2023-08-12T02:18:17;101671.00;;;19.94;100.00
58955;BME280;45815;52.334;5.024;2023-08-12T02:20:42;101667.44;;;19.95;100.00
58955;BME280;45815;52.334;5.024;2023-08-12T02:23:08;101661.22;;;19.96;100.00
58955;BME280;45815;52.334;5.024;2023-08-12T02:25:33;101668.31;;;19.97;100.00
58955;BME280;45815;52.334;5.024;2023-08-12T02:27:59;101659.44;;;20.00;100.00
58955;BME280;45815;52.334;5.024;2023-08-12T02:30:24;101662.97;;;20.00;100.00
58955;BME280;45815;52.334;5.024;2023-08-12T02:32:49;101656.75;;;19.97;100.00
58955;BME280;45815;52.334;5.024;2023-08-12T02:35:17;101655.84;;;20.02;100.00
58955;BME280;45815;52.334;5.024;2023-08-12T02:37:43;101654.94;;;20.03;100.00
58955;BME280;45815;52.334;5.024;2023-08-12T02:40:09;101653.16;;;20.04;100.00
58955;BME280;45815;52.334;5.024;2023-08-12T02:42:36;101646.06;;;20.05;100.00
58955;BME280;45815;52.334;5.024;2023-08-12T02:45:01;101644.28;;;20.07;100.00
58955;BME280;45815;52.334;5.024;2023-08-12T02:47:27;101641.63;;;20.07;100.00
58955;BME280;45815;52.334;5.024;2023-08-12T02:49:53;101642.47;;;20.09;100.00
58955;BME280;45815;52.334;5.024;2023-08-12T02:52:18;101646.91;;;20.08;100.00
58955;BME280;45815;52.334;5.024;2023-08-12T02:54:44;101646.03;;;20.09;100.00
58955;BME280;45815;52.334;5.024;2023-08-12T02:57:09;101642.47;;;20.10;100.00
58955;BME280;45815;52.334;5.024;2023-08-12T02:59:34;101640.66;;;20.12;100.00
58955;BME280;45815;52.334;5.024;2023-08-12T03:02:00;101637.13;;;20.12;100.00
58955;BME280;45815;52.334;5.024;2023-08-12T03:04:25;101637.13;;;20.12;100.00
58955;BME280;45815;52.334;5.024;2023-08-12T03:06:51;101630.88;;;20.13;100.00
58955;BME280;45815;52.334;5.024;2023-08-12T03:09:16;101630.88;;;20.13;100.00
58955;BME280;45815;52.334;5.024;2023-08-12T03:11:44;101626.44;;;20.15;100.00
58955;BME280;45815;52.334;5.024;2023-08-12T03:14:10;101629.06;;;20.18;100.00
58955;BME280;45815;52.334;5.024;2023-08-12T03:16:35;101619.31;;;20.18;100.00
58955;BME280;45815;52.334;5.024;2023-08-12T03:19:01;101623.72;;;20.21;100.00
58955;BME280;45815;52.334;5.024;2023-08-12T03:21:26;101606.91;;;20.14;100.00
58955;BME280;45815;52.334;5.024;2023-08-12T03:23:52;101620.16;;;20.22;100.00
58955;BME280;45815;52.334;5.024;2023-08-12T03:26:17;101610.34;;;20.24;100.00
58955;BME280;45815;52.334;5.024;2023-08-12T03:28:43;101614.81;;;20.23;100.00
58955;BME280;45815;52.334;5.024;2023-08-12T03:31:12;101615.69;;;20.26;100.00
58955;BME280;45815;52.334;5.024;2023-08-12T03:33:38;101606.78;;;20.27;100.00
58955;BME280;45815;52.334;5.024;2023-08-12T03:36:04;101597.94;;;20.23;100.00
58955;BME280;45815;52.334;5.024;2023-08-12T03:38:29;101602.31;;;20.29;100.00
58955;BME280;45815;52.334;5.024;2023-08-12T03:40:55;101598.78;;;20.28;100.00
58955;BME280;45815;52.334;5.024;2023-08-12T03:43:21;101593.44;;;20.27;100.00
58955;BME280;45815;52.334;5.024;2023-08-12T03:45:47;101589.91;;;20.24;100.00
58955;BME280;45815;52.334;5.024;2023-08-12T03:48:15;101595.19;;;20.29;100.00
58955;BME280;45815;52.334;5.024;2023-08-12T03:50:41;101589.91;;;20.26;100.00
58955;BME280;45815;52.334;5.024;2023-08-12T03:53:07;101592.56;;;20.24;100.00
58955;BME280;45815;52.334;5.024;2023-08-12T03:55:34;101599.69;;;20.24;100.00
58955;BME280;45815;52.334;5.024;2023-08-12T03:58:00;101598.81;;;20.22;100.00
58955;BME280;45815;52.334;5.024;2023-08-12T04:00:27;101605.94;;;20.23;100.00
58955;BME280;45815;52.334;5.024;2023-08-12T04:02:57;101609.47;;;20.23;100.00
58955;BME280;45815;52.334;5.024;2023-08-12T04:05:22;101600.56;;;20.24;100.00
58955;BME280;45815;52.334;5.024;2023-08-12T04:07:48;101592.56;;;20.24;100.00
58955;BME280;45815;52.334;5.024;2023-08-12T04:10:14;101589.91;;;20.24;100.00
58955;BME280;45815;52.334;5.024;2023-08-12T04:12:40;101578.41;;;20.18;100.00
58955;BME280;45815;52.334;5.024;2023-08-12T04:15:07;101586.31;;;20.27;100.00
58955;BME280;45815;52.334;5.024;2023-08-12T04:17:34;101581.91;;;20.28;100.00
58955;BME280;45815;52.334;5.024;2023-08-12T04:20:00;101579.22;;;20.29;100.00
58955;BME280;45815;52.334;5.024;2023-08-12T04:22:25;101574.75;;;20.30;100.00
58955;BME280;45815;52.334;5.024;2023-08-12T04:24:51;101576.53;;;20.31;100.00
58955;BME280;45815;52.334;5.024;2023-08-12T04:27:17;101578.28;;;20.35;100.00
58955;BME280;45815;52.334;5.024;2023-08-12T04:29:43;101573.78;;;20.40;100.00
58955;BME280;45815;52.334;5.024;2023-08-12T04:32:08;101568.41;;;20.44;100.00
58955;BME280;45815;52.334;5.024;2023-08-12T04:34:34;101565.75;;;20.43;100.00
58955;BME280;45815;52.334;5.024;2023-08-12T04:37:00;101554.16;;;20.49;100.00
58955;BME280;45815;52.334;5.024;2023-08-12T04:39:25;101546.97;;;20.51;100.00
58955;BME280;45815;52.334;5.024;2023-08-12T04:41:51;101543.44;;;20.52;100.00
58955;BME280;45815;52.334;5.024;2023-08-12T04:44:16;101552.31;;;20.54;100.00
58955;BME280;45815;52.334;5.024;2023-08-12T04:46:42;101551.41;;;20.56;100.00
58955;BME280;45815;52.334;5.024;2023-08-12T04:49:08;101538.97;;;20.57;100.00
58955;BME280;45815;52.334;5.024;2023-08-12T04:51:33;101537.22;;;20.56;100.00
58955;BME280;45815;52.334;5.024;2023-08-12T04:53:59;101522.16;;;20.49;100.00
58955;BME280;45815;52.334;5.024;2023-08-12T04:56:27;101533.59;;;20.55;100.00
58955;BME280;45815;52.334;5.024;2023-08-12T04:58:56;101538.06;;;20.55;100.00
58955;BME280;45815;52.334;5.024;2023-08-12T05:01:22;101535.38;;;20.55;100.00
58955;BME280;45815;52.334;5.024;2023-08-12T05:03:49;101538.06;;;20.55;100.00
58955;BME280;45815;52.334;5.024;2023-08-12T05:06:15;101541.63;;;20.54;100.00
58955;BME280;45815;52.334;5.024;2023-08-12T05:08:40;101536.31;;;20.54;100.00
58955;BME280;45815;52.334;5.024;2023-08-12T05:11:06;101535.41;;;20.53;100.00
58955;BME280;45815;52.334;5.024;2023-08-12T05:13:31;101534.50;;;20.54;100.00
58955;BME280;45815;52.334;5.024;2023-08-12T05:15:57;101529.22;;;20.56;100.00
58955;BME280;45815;52.334;5.024;2023-08-12T05:18:22;101532.72;;;20.58;100.00
58955;BME280;45815;52.334;5.024;2023-08-12T05:20:52;101518.50;;;20.59;100.00
58955;BME280;45815;52.334;5.024;2023-08-12T05:23:19;101524.69;;;20.61;100.00
58955;BME280;45815;52.334;5.024;2023-08-12T05:25:45;101520.31;;;20.54;100.00
58955;BME280;45815;52.334;5.024;2023-08-12T05:28:10;101531.78;;;20.63;100.00
58955;BME280;45815;52.334;5.024;2023-08-12T05:30:36;101530.84;;;20.66;100.00
58955;BME280;45815;52.334;5.024;2023-08-12T05:33:01;101530.81;;;20.69;100.00
58955;BME280;45815;52.334;5.024;2023-08-12T05:35:27;101531.66;;;20.73;100.00
58955;BME280;45815;52.334;5.024;2023-08-12T05:37:53;101520.06;;;20.75;100.00
58955;BME280;45815;52.334;5.024;2023-08-12T05:40:18;101525.38;;;20.78;100.00
58955;BME280;45815;52.334;5.024;2023-08-12T05:42:44;101527.16;;;20.79;100.00
58955;BME280;45815;52.334;5.024;2023-08-12T05:45:09;101521.81;;;20.76;100.00
58955;BME280;45815;52.334;5.024;2023-08-12T05:47:36;101521.81;;;20.78;100.00
58955;BME280;45815;52.334;5.024;2023-08-12T05:50:01;101533.41;;;20.77;100.00
58955;BME280;45815;52.334;5.024;2023-08-12T05:52:27;101513.88;;;20.73;100.00
58955;BME280;45815;52.334;5.024;2023-08-12T05:54:52;101528.94;;;20.77;100.00
58955;BME280;45815;52.334;5.024;2023-08-12T05:57:18;101523.63;;;20.77;100.00
58955;BME280;45815;52.334;5.024;2023-08-12T05:59:43;101523.63;;;20.77;100.00
58955;BME280;45815;52.334;5.024;2023-08-12T06:02:09;101543.16;;;20.76;100.00
58955;BME280;45815;52.334;5.024;2023-08-12T06:04:34;101544.09;;;20.77;100.00
58955;BME280;45815;52.334;5.024;2023-08-12T06:07:00;101554.75;;;20.74;100.00
58955;BME280;45815;52.334;5.024;2023-08-12T06:09:25;101549.44;;;20.74;100.00
58955;BME280;45815;52.334;5.024;2023-08-12T06:11:51;101555.63;;;20.74;100.00
58955;BME280;45815;52.334;5.024;2023-08-12T06:14:16;101556.59;;;20.70;100.00
58955;BME280;45815;52.334;5.024;2023-08-12T06:16:41;101560.19;;;20.66;100.00
58955;BME280;45815;52.334;5.024;2023-08-12T06:19:07;101564.63;;;20.67;100.00
58955;BME280;45815;52.334;5.024;2023-08-12T06:21:32;101559.31;;;20.65;100.00
58955;BME280;45815;52.334;5.024;2023-08-12T06:23:58;101559.31;;;20.64;100.00
58955;BME280;45815;52.334;5.024;2023-08-12T06:26:23;101557.56;;;20.63;100.00
58955;BME280;45815;52.334;5.024;2023-08-12T06:28:49;101538.97;;;20.51;100.00
58955;BME280;45815;52.334;5.024;2023-08-12T06:31:14;101552.31;;;20.57;100.00
58955;BME280;45815;52.334;5.024;2023-08-12T06:33:40;101535.38;;;20.58;100.00
58955;BME280;45815;52.334;5.024;2023-08-12T06:36:06;101526.53;;;20.56;100.00
58955;BME280;45815;52.334;5.024;2023-08-12T06:38:32;101526.50;;;20.57;100.00
58955;BME280;45815;52.334;5.024;2023-08-12T06:40:57;101525.63;;;20.57;100.00
58955;BME280;45815;52.334;5.024;2023-08-12T06:43:22;101522.97;;;20.57;100.00
58955;BME280;45815;52.334;5.024;2023-08-12T06:45:48;101525.63;;;20.54;100.00
58955;BME280;45815;52.334;5.024;2023-08-12T06:48:13;101526.50;;;20.54;100.00
58955;BME280;45815;52.334;5.024;2023-08-12T06:50:39;101530.06;;;20.53;100.00
58955;BME280;45815;52.334;5.024;2023-08-12T06:53:04;101527.41;;;20.53;100.00
58955;BME280;45815;52.334;5.024;2023-08-12T06:55:30;101525.66;;;20.51;100.00
58955;BME280;45815;52.334;5.024;2023-08-12T06:57:55;101515.88;;;20.51;100.00
58955;BME280;45815;52.334;5.024;2023-08-12T07:00:21;101523.84;;;20.53;100.00
58955;BME280;45815;52.334;5.024;2023-08-12T07:02:46;101513.28;;;20.47;100.00
58955;BME280;45815;52.334;5.024;2023-08-12T07:05:12;101511.56;;;20.39;100.00
58955;BME280;45815;52.334;5.024;2023-08-12T07:07:37;101516.81;;;20.45;100.00
58955;BME280;45815;52.334;5.024;2023-08-12T07:10:03;101514.97;;;20.51;100.00
58955;BME280;45815;52.334;5.024;2023-08-12T07:12:29;101514.97;;;20.51;100.00
58955;BME280;45815;52.334;5.024;2023-08-12T07:14:55;101508.72;;;20.53;100.00
58955;BME280;45815;52.334;5.024;2023-08-12T07:17:20;101513.19;;;20.53;100.00
58955;BME280;45815;52.334;5.024;2023-08-12T07:19:45;101510.53;;;20.56;100.00
58955;BME280;45815;52.334;5.024;2023-08-12T07:22:12;101513.13;;;20.62;100.00
58955;BME280;45815;52.334;5.024;2023-08-12T07:24:38;101521.09;;;20.65;100.00
58955;BME280;45815;52.334;5.024;2023-08-12T07:27:03;101517.53;;;20.66;100.00
58955;BME280;45815;52.334;5.024;2023-08-12T07:29:29;101518.44;;;20.65;100.00
58955;BME280;45815;52.334;5.024;2023-08-12T07:31:54;101518.50;;;20.59;100.00
58955;BME280;45815;52.334;5.024;2023-08-12T07:34:19;101514.91;;;20.63;100.00
58955;BME280;45815;52.334;5.024;2023-08-12T07:36:45;101514.91;;;20.60;100.00
58955;BME280;45815;52.334;5.024;2023-08-12T07:39:11;101513.13;;;20.62;100.00
58955;BME280;45815;52.334;5.024;2023-08-12T07:41:36;101512.28;;;20.57;100.00
58955;BME280;45815;52.334;5.024;2023-08-12T07:44:03;101514.97;;;20.54;100.00
58955;BME280;45815;52.334;5.024;2023-08-12T07:46:29;101510.50;;;20.53;100.00
58955;BME280;45815;52.334;5.024;2023-08-12T07:48:56;101514.97;;;20.51;100.00
58955;BME280;45815;52.334;5.024;2023-08-12T07:51:21;101516.81;;;20.49;100.00
58955;BME280;45815;52.334;5.024;2023-08-12T07:53:46;101525.69;;;20.48;100.00
58955;BME280;45815;52.334;5.024;2023-08-12T07:56:12;101517.69;;;20.48;100.00
58955;BME280;45815;52.334;5.024;2023-08-12T07:58:37;101524.81;;;20.49;100.00
58955;BME280;45815;52.334;5.024;2023-08-12T08:01:03;101522.09;;;20.52;100.00
58955;BME280;45815;52.334;5.024;2023-08-12T08:03:30;101529.22;;;20.50;100.00
58955;BME280;45815;52.334;5.024;2023-08-12T08:05:56;101525.69;;;20.49;100.00
58955;BME280;45815;52.334;5.024;2023-08-12T08:08:21;101545.28;;;20.45;100.00
58955;BME280;45815;52.334;5.024;2023-08-12T08:10:46;101535.53;;;20.41;100.00
58955;BME280;45815;52.334;5.024;2023-08-12T08:13:12;101536.50;;;20.35;100.00
58955;BME280;45815;52.334;5.024;2023-08-12T08:15:37;101536.53;;;20.32;100.00
58955;BME280;45815;52.334;5.024;2023-08-12T08:18:03;101536.53;;;20.31;100.00
58955;BME280;45815;52.334;5.024;2023-08-12T08:20:29;101526.00;;;20.17;100.00
58955;BME280;45815;52.334;5.024;2023-08-12T08:22:55;101524.44;;;19.97;100.00
58955;BME280;45815;52.334;5.024;2023-08-12T08:25:21;101528.09;;;19.84;100.00
58955;BME280;45815;52.334;5.024;2023-08-12T08:27:46;101526.41;;;19.72;100.00
58955;BME280;45815;52.334;5.024;2023-08-12T08:30:12;101540.63;;;19.70;100.00
58955;BME280;45815;52.334;5.024;2023-08-12T08:32:38;101544.22;;;19.63;100.00
58955;BME280;45815;52.334;5.024;2023-08-12T08:35:04;101538.97;;;19.50;100.00
58955;BME280;45815;52.334;5.024;2023-08-12T08:37:30;101535.47;;;19.40;100.00
58955;BME280;45815;52.334;5.024;2023-08-12T08:39:55;101536.41;;;19.36;100.00
58955;BME280;45815;52.334;5.024;2023-08-12T08:42:24;101538.19;;;19.34;100.00
58955;BME280;45815;52.334;5.024;2023-08-12T08:44:52;101540.84;;;19.33;100.00
58955;BME280;45815;52.334;5.024;2023-08-12T08:47:25;101533.75;;;19.29;100.00
58955;BME280;45815;52.334;5.024;2023-08-12T08:49:51;101524.91;;;19.27;100.00
58955;BME280;45815;52.334;5.024;2023-08-12T08:52:18;101504.59;;;19.13;100.00
58955;BME280;45815;52.334;5.024;2023-08-12T08:54:44;101509.00;;;19.14;100.00
58955;BME280;45815;52.334;5.024;2023-08-12T08:57:11;101501.91;;;19.16;100.00
58955;BME280;45815;52.334;5.024;2023-08-12T08:59:37;101514.31;;;19.21;100.00
58955;BME280;45815;52.334;5.024;2023-08-12T09:02:04;101518.72;;;19.22;100.00
58955;BME280;45815;52.334;5.024;2023-08-12T09:04:30;101537.34;;;19.28;100.00
58955;BME280;45815;52.334;5.024;2023-08-12T09:06:58;101542.63;;;19.34;100.00
58955;BME280;45815;52.334;5.024;2023-08-12T09:09:25;101518.66;;;19.32;100.00
58955;BME280;45815;52.334;5.024;2023-08-12T09:11:52;101515.91;;;19.43;100.00
58955;BME280;45815;52.334;5.024;2023-08-12T09:14:18;101517.69;;;19.46;100.00
58955;BME280;45815;52.334;5.024;2023-08-12T09:16:43;101530.97;;;19.52;100.00
58955;BME280;45815;52.334;5.024;2023-08-12T09:19:09;101535.38;;;19.57;100.00
58955;BME280;45815;52.334;5.024;2023-08-12T09:21:34;101530.84;;;19.69;100.00
58955;BME280;45815;52.334;5.024;2023-08-12T09:24:03;101521.97;;;19.74;100.00
58955;BME280;45815;52.334;5.024;2023-08-12T09:26:29;101529.03;;;19.78;100.00
58955;BME280;45815;52.334;5.024;2023-08-12T09:28:55;101517.44;;;19.84;100.00
58955;BME280;45815;52.334;5.024;2023-08-12T09:31:30;101506.75;;;19.87;100.00
58955;BME280;45815;52.334;5.024;2023-08-12T09:34:05;101522.69;;;19.93;100.00
58955;BME280;45815;52.334;5.024;2023-08-12T09:36:33;101516.44;;;19.97;100.00
58955;BME280;45815;52.334;5.024;2023-08-12T09:38:58;101529.72;;;20.00;100.00
58955;BME280;45815;52.334;5.024;2023-08-12T09:41:27;101523.44;;;20.09;100.00
58955;BME280;45815;52.334;5.024;2023-08-12T09:43:55;101517.19;;;20.12;100.00
58955;BME280;45815;52.334;5.024;2023-08-12T09:46:21;101533.00;;;20.29;100.00
58955;BME280;45815;52.334;5.024;2023-08-12T09:48:51;101525.78;;;20.38;100.00
58955;BME280;45815;52.334;5.024;2023-08-12T09:51:20;101533.75;;;20.44;100.00
58955;BME280;45815;52.334;5.024;2023-08-12T09:53:49;101538.09;;;20.52;100.00
58955;BME280;45815;52.334;5.024;2023-08-12T09:56:19;101541.47;;;20.72;100.00
58955;BME280;45815;52.334;5.024;2023-08-12T09:58:49;101532.31;;;20.92;100.00
58955;BME280;45815;52.334;5.024;2023-08-12T10:01:19;101543.69;;;21.07;100.00
58955;BME280;45815;52.334;5.024;2023-08-12T10:03:49;101529.06;;;21.35;100.00
58955;BME280;45815;52.334;5.024;2023-08-12T10:06:16;101532.94;;;21.73;100.00
58955;BME280;45815;52.334;5.024;2023-08-12T10:08:41;101534.47;;;21.89;100.00
58955;BME280;45815;52.334;5.024;2023-08-12T10:11:08;101534.16;;;22.07;100.00
58955;BME280;45815;52.334;5.024;2023-08-12T10:13:35;101522.00;;;22.41;100.00
58955;BME280;45815;52.334;5.024;2023-08-12T10:16:01;101529.69;;;22.58;100.00
58955;BME280;45815;52.334;5.024;2023-08-12T10:18:28;101525.66;;;22.80;100.00
58955;BME280;45815;52.334;5.024;2023-08-12T10:20:57;101518.34;;;22.88;100.00
58955;BME280;45815;52.334;5.024;2023-08-12T10:23:24;101523.72;;;22.88;100.00
58955;BME280;45815;52.334;5.024;2023-08-12T10:25:53;101515.97;;;22.74;100.00
58955;BME280;45815;52.334;5.024;2023-08-12T10:28:19;101518.25;;;22.94;100.00
58955;BME280;45815;52.334;5.024;2023-08-12T10:30:45;101517.63;;;23.22;100.00
58955;BME280;45815;52.334;5.024;2023-08-12T10:33:11;101515.50;;;23.36;100.00
58955;BME280;45815;52.334;5.024;2023-08-12T10:35:45;101512.59;;;23.47;100.00
58955;BME280;45815;52.334;5.024;2023-08-12T10:38:13;101510.03;;;23.41;100.00
58955;BME280;45815;52.334;5.024;2023-08-12T10:40:38;101505.41;;;23.49;100.00
58955;BME280;45815;52.334;5.024;2023-08-12T10:43:04;101511.63;;;23.87;100.00
58955;BME280;45815;52.334;5.024;2023-08-12T10:46:02;101507.41;;;24.11;100.00
58955;BME280;45815;52.334;5.024;2023-08-12T10:48:27;101505.84;;;24.37;100.00
58955;BME280;45815;52.334;5.024;2023-08-12T10:50:55;101507.03;;;24.59;100.00
58955;BME280;45815;52.334;5.024;2023-08-12T10:55:48;101487.31;;;24.90;100.00
58955;BME280;45815;52.334;5.024;2023-08-12T10:58:25;101498.34;;;25.11;100.00
58955;BME280;45815;52.334;5.024;2023-08-12T11:00:57;101483.44;;;25.30;100.00
58955;BME280;45815;52.334;5.024;2023-08-12T11:03:23;101494.81;;;25.38;100.00
58955;BME280;45815;52.334;5.024;2023-08-12T11:05:49;101494.16;;;25.58;100.00
58955;BME280;45815;52.334;5.024;2023-08-12T11:08:16;101494.03;;;25.61;100.00
58955;BME280;45815;52.334;5.024;2023-08-12T11:10:41;101492.97;;;25.67;100.00
58955;BME280;45815;52.334;5.024;2023-08-12T11:13:08;101480.78;;;25.83;100.00
58955;BME280;45815;52.334;5.024;2023-08-12T11:15:42;101484.56;;;26.04;100.00
58955;BME280;45815;52.334;5.024;2023-08-12T11:18:09;101489.22;;;26.24;100.00
58955;BME280;45815;52.334;5.024;2023-08-12T11:20:35;101490.56;;;26.36;100.00
58955;BME280;45815;52.334;5.024;2023-08-12T11:23:02;101489.66;;;26.62;100.00
58955;BME280;45815;52.334;5.024;2023-08-12T11:25:28;101487.41;;;26.73;100.00
58955;BME280;45815;52.334;5.024;2023-08-12T11:27:54;101478.16;;;26.81;100.00
58955;BME280;45815;52.334;5.024;2023-08-12T11:30:21;101475.13;;;26.90;100.00
58955;BME280;45815;52.334;5.024;2023-08-12T11:32:49;101481.03;;;27.00;100.00
58955;BME280;45815;52.334;5.024;2023-08-12T11:35:17;101462.41;;;27.15;100.00
58955;BME280;45815;52.334;5.024;2023-08-12T11:37:47;101478.47;;;27.42;100.00
58955;BME280;45815;52.334;5.024;2023-08-12T11:40:15;101476.88;;;27.58;100.00
58955;BME280;45815;52.334;5.024;2023-08-12T11:42:45;101468.94;;;27.76;100.00
58955;BME280;45815;52.334;5.024;2023-08-12T11:45:11;101478.59;;;27.82;100.00
58955;BME280;45815;52.334;5.024;2023-08-12T11:47:38;101484.19;;;27.77;100.00
58955;BME280;45815;52.334;5.024;2023-08-12T11:50:11;101482.22;;;27.81;100.00
58955;BME280;45815;52.334;5.024;2023-08-12T11:52:38;101478.59;;;27.82;100.00
58955;BME280;45815;52.334;5.024;2023-08-12T11:55:05;101484.94;;;27.81;100.00
58955;BME280;45815;52.334;5.024;2023-08-12T11:57:31;101466.16;;;27.99;100.00
58955;BME280;45815;52.334;5.024;2023-08-12T12:00:05;101472.34;;;28.22;100.00
58955;BME280;45815;52.334;5.024;2023-08-12T12:02:48;101478.28;;;28.51;100.00
58955;BME280;45815;52.334;5.024;2023-08-12T12:05:14;101480.94;;;28.52;100.00
58955;BME280;45815;52.334;5.024;2023-08-12T12:07:40;101481.59;;;28.76;100.00
58955;BME280;45815;52.334;5.024;2023-08-12T12:10:06;101474.94;;;28.65;100.00
58955;BME280;45815;52.334;5.024;2023-08-12T12:12:36;101482.13;;;28.85;100.00
58955;BME280;45815;52.334;5.024;2023-08-12T12:15:02;101483.00;;;29.04;100.00
58955;BME280;45815;52.334;5.024;2023-08-12T12:17:28;101482.88;;;29.07;100.00
58955;BME280;45815;52.334;5.024;2023-08-12T12:19:58;101475.13;;;29.18;100.00
58955;BME280;45815;52.334;5.024;2023-08-12T12:22:28;101478.28;;;29.09;100.00
58955;BME280;45815;52.334;5.024;2023-08-12T12:24:54;101489.28;;;29.23;100.00
58955;BME280;45815;52.334;5.024;2023-08-12T12:27:19;101488.22;;;29.45;100.00
58955;BME280;45815;52.334;5.024;2023-08-12T12:29:45;101484.56;;;29.46;100.00
58955;BME280;45815;52.334;5.024;2023-08-12T12:32:10;101496.38;;;29.62;100.00
58955;BME280;45815;52.334;5.024;2023-08-12T12:34:36;101497.06;;;29.49;100.00
58955;BME280;45815;52.334;5.024;2023-08-12T12:37:01;101503.41;;;29.66;99.71
58955;BME280;45815;52.334;5.024;2023-08-12T12:39:27;101499.09;;;29.62;100.00